Kezdőlap
METAR-TAF:

METAR-TAF

Repülőterek :

Hastings Municipal Airport

Hastings, Nebraska, Amerikai Egyesült Államok

földrajzi szélesség: 40-36-02N, földrajzi hosszúság: 098-25-33W, magasság: 595 m

Jelenlegi meteorológiai megfigyelések

A jelentés 33 perccel ezelõtt készült, 20:53 UTC
Észak-északnyugati szél 14 kt
Hőmérséklet 24°C
Páratartalom 47%
Légköri nyomás 1007 hPa
Látótávolság: 16.1 km
Derült ég

METAR: KHSI 262053Z AUTO 33014KT 10SM CLR 24/12 A2973 RMK AO2 SLP054 T02390122 53004

Idő: 16:26 (21:26 UTC)


TAF: hiányzik

Meteorológiai megfigyelések és előrejelzések több, mint 4000 repülőtéren (METAR és TAF jelentéseket).

A térképen piros és sárga pontok jelzik az elérhető meteorológiai állomásokat.

Mozgassa az egeret a pont fölött, hogy megjelenjen az állomás neve.

Azután kattintson az időjárási megfigyelések és előrejelzések megtekintéséhez.

A térkép megváltoztatása: kattintson a fekete keresztel jelölt zöld gombra ráközelítéshez, a vonallal jelölt zöld gombra távolításhoz, vagy a zöld nyilakra a szomszédos térképek eléréséhez.


METAR-TAF: